sensor_id;sensor_type;location;lat;lon;timestamp;P1;durP1;ratioP1;P2;durP2;ratioP2
52035;SDS011;38046;49.448;32.074;2023-05-01T00:02:09;2.83;;;2.50;;
52035;SDS011;38046;49.448;32.074;2023-05-01T00:04:35;3.45;;;2.78;;
52035;SDS011;38046;49.448;32.074;2023-05-01T00:07:01;3.33;;;2.90;;
52035;SDS011;38046;49.448;32.074;2023-05-01T00:09:27;3.00;;;2.60;;
52035;SDS011;38046;49.448;32.074;2023-05-01T00:11:52;4.00;;;2.85;;
52035;SDS011;38046;49.448;32.074;2023-05-01T00:14:18;3.50;;;2.75;;
52035;SDS011;38046;49.448;32.074;2023-05-01T00:16:44;3.38;;;2.90;;
52035;SDS011;38046;49.448;32.074;2023-05-01T00:19:10;3.58;;;2.70;;
52035;SDS011;38046;49.448;32.074;2023-05-01T00:21:36;3.60;;;2.53;;
52035;SDS011;38046;49.448;32.074;2023-05-01T00:24:02;3.13;;;2.83;;
52035;SDS011;38046;49.448;32.074;2023-05-01T00:26:28;3.33;;;2.83;;
52035;SDS011;38046;49.448;32.074;2023-05-01T00:28:55;3.70;;;2.83;;
52035;SDS011;38046;49.448;32.074;2023-05-01T00:31:23;2.65;;;2.45;;
52035;SDS011;38046;49.448;32.074;2023-05-01T00:33:49;4.13;;;2.90;;
52035;SDS011;38046;49.448;32.074;2023-05-01T00:36:15;3.97;;;2.88;;
52035;SDS011;38046;49.448;32.074;2023-05-01T00:38:41;3.90;;;3.05;;
52035;SDS011;38046;49.448;32.074;2023-05-01T00:41:06;3.65;;;3.00;;
52035;SDS011;38046;49.448;32.074;2023-05-01T00:43:32;2.75;;;2.55;;
52035;SDS011;38046;49.448;32.074;2023-05-01T00:45:57;3.53;;;2.67;;
52035;SDS011;38046;49.448;32.074;2023-05-01T00:48:24;3.60;;;2.85;;
52035;SDS011;38046;49.448;32.074;2023-05-01T00:50:50;3.33;;;2.78;;
52035;SDS011;38046;49.448;32.074;2023-05-01T00:53:18;3.28;;;2.42;;
52035;SDS011;38046;49.448;32.074;2023-05-01T00:55:45;3.03;;;2.40;;
52035;SDS011;38046;49.448;32.074;2023-05-01T00:58:12;2.90;;;2.60;;
52035;SDS011;38046;49.448;32.074;2023-05-01T01:00:40;3.70;;;2.90;;
52035;SDS011;38046;49.448;32.074;2023-05-01T01:03:06;2.95;;;2.67;;
52035;SDS011;38046;49.448;32.074;2023-05-01T01:05:33;2.65;;;2.45;;
52035;SDS011;38046;49.448;32.074;2023-05-01T01:08:10;3.60;;;2.63;;
52035;SDS011;38046;49.448;32.074;2023-05-01T01:11:39;3.35;;;2.58;;
52035;SDS011;38046;49.448;32.074;2023-05-01T01:16:38;3.38;;;2.60;;
52035;SDS011;38046;49.448;32.074;2023-05-01T01:22:11;2.90;;;2.65;;
52035;SDS011;38046;49.448;32.074;2023-05-01T01:36:18;2.88;;;2.40;;
52035;SDS011;38046;49.448;32.074;2023-05-01T01:38:47;2.58;;;2.38;;
52035;SDS011;38046;49.448;32.074;2023-05-01T01:41:30;2.80;;;2.50;;
52035;SDS011;38046;49.448;32.074;2023-05-01T01:44:00;3.50;;;2.53;;
52035;SDS011;38046;49.448;32.074;2023-05-01T01:46:47;3.47;;;2.75;;
52035;SDS011;38046;49.448;32.074;2023-05-01T01:49:19;3.53;;;2.38;;
52035;SDS011;38046;49.448;32.074;2023-05-01T01:51:49;2.80;;;2.60;;
52035;SDS011;38046;49.448;32.074;2023-05-01T01:54:18;3.03;;;2.65;;
52035;SDS011;38046;49.448;32.074;2023-05-01T01:56:50;2.80;;;2.60;;
52035;SDS011;38046;49.448;32.074;2023-05-01T01:59:17;2.53;;;2.33;;
52035;SDS011;38046;49.448;32.074;2023-05-01T02:01:45;3.10;;;2.40;;
52035;SDS011;38046;49.448;32.074;2023-05-01T02:04:13;2.83;;;2.45;;
52035;SDS011;38046;49.448;32.074;2023-05-01T02:06:39;2.78;;;2.40;;
52035;SDS011;38046;49.448;32.074;2023-05-01T02:09:06;2.90;;;2.60;;
52035;SDS011;38046;49.448;32.074;2023-05-01T02:11:33;2.72;;;2.47;;
52035;SDS011;38046;49.448;32.074;2023-05-01T02:14:01;2.92;;;2.55;;
52035;SDS011;38046;49.448;32.074;2023-05-01T02:16:30;3.78;;;2.50;;
52035;SDS011;38046;49.448;32.074;2023-05-01T02:18:58;3.13;;;2.50;;
52035;SDS011;38046;49.448;32.074;2023-05-01T02:21:25;2.60;;;2.40;;
52035;SDS011;38046;49.448;32.074;2023-05-01T02:23:55;3.85;;;2.50;;
52035;SDS011;38046;49.448;32.074;2023-05-01T02:26:23;3.55;;;2.50;;
52035;SDS011;38046;49.448;32.074;2023-05-01T02:28:53;2.40;;;2.20;;
52035;SDS011;38046;49.448;32.074;2023-05-01T02:31:19;2.90;;;2.50;;
52035;SDS011;38046;49.448;32.074;2023-05-01T02:33:46;3.90;;;2.67;;
52035;SDS011;38046;49.448;32.074;2023-05-01T02:36:11;3.03;;;2.65;;
52035;SDS011;38046;49.448;32.074;2023-05-01T02:38:37;2.50;;;2.30;;
52035;SDS011;38046;49.448;32.074;2023-05-01T02:41:03;3.10;;;2.40;;
52035;SDS011;38046;49.448;32.074;2023-05-01T02:43:31;3.78;;;2.47;;
52035;SDS011;38046;49.448;32.074;2023-05-01T02:45:57;3.22;;;2.53;;
52035;SDS011;38046;49.448;32.074;2023-05-01T02:48:26;2.90;;;2.60;;
52035;SDS011;38046;49.448;32.074;2023-05-01T02:50:53;2.28;;;2.17;;
52035;SDS011;38046;49.448;32.074;2023-05-01T02:53:20;2.90;;;2.60;;
52035;SDS011;38046;49.448;32.074;2023-05-01T02:55:46;3.25;;;2.90;;
52035;SDS011;38046;49.448;32.074;2023-05-01T02:58:17;3.00;;;2.50;;
52035;SDS011;38046;49.448;32.074;2023-05-01T03:00:43;3.15;;;2.58;;
52035;SDS011;38046;49.448;32.074;2023-05-01T03:03:10;2.58;;;2.38;;
52035;SDS011;38046;49.448;32.074;2023-05-01T03:05:39;3.00;;;2.67;;
52035;SDS011;38046;49.448;32.074;2023-05-01T03:08:05;2.50;;;2.25;;
52035;SDS011;38046;49.448;32.074;2023-05-01T03:10:31;2.60;;;2.40;;
52035;SDS011;38046;49.448;32.074;2023-05-01T03:12:57;2.53;;;2.33;;
52035;SDS011;38046;49.448;32.074;2023-05-01T03:15:24;2.72;;;2.40;;
52035;SDS011;38046;49.448;32.074;2023-05-01T03:17:49;2.63;;;2.30;;
52035;SDS011;38046;49.448;32.074;2023-05-01T03:20:15;2.97;;;2.20;;
52035;SDS011;38046;49.448;32.074;2023-05-01T03:22:41;2.83;;;2.55;;
52035;SDS011;38046;49.448;32.074;2023-05-01T03:25:07;2.40;;;2.20;;
52035;SDS011;38046;49.448;32.074;2023-05-01T03:27:33;2.30;;;2.08;;
52035;SDS011;38046;49.448;32.074;2023-05-01T03:29:59;2.25;;;2.10;;
52035;SDS011;38046;49.448;32.074;2023-05-01T03:32:25;2.90;;;2.60;;
52035;SDS011;38046;49.448;32.074;2023-05-01T03:34:53;2.28;;;2.15;;
52035;SDS011;38046;49.448;32.074;2023-05-01T03:37:18;4.30;;;2.85;;
52035;SDS011;38046;49.448;32.074;2023-05-01T03:39:44;2.60;;;2.40;;
52035;SDS011;38046;49.448;32.074;2023-05-01T03:42:11;3.10;;;2.30;;
52035;SDS011;38046;49.448;32.074;2023-05-01T03:44:36;3.17;;;2.10;;
52035;SDS011;38046;49.448;32.074;2023-05-01T03:47:02;2.38;;;2.00;;
52035;SDS011;38046;49.448;32.074;2023-05-01T03:49:28;3.63;;;2.33;;
52035;SDS011;38046;49.448;32.074;2023-05-01T03:51:54;3.50;;;2.53;;
52035;SDS011;38046;49.448;32.074;2023-05-01T03:54:20;2.20;;;2.10;;
52035;SDS011;38046;49.448;32.074;2023-05-01T03:56:46;2.38;;;2.17;;
52035;SDS011;38046;49.448;32.074;2023-05-01T03:59:11;2.30;;;2.10;;
52035;SDS011;38046;49.448;32.074;2023-05-01T04:01:38;2.50;;;2.30;;
52035;SDS011;38046;49.448;32.074;2023-05-01T04:04:04;3.80;;;2.50;;
52035;SDS011;38046;49.448;32.074;2023-05-01T04:06:30;4.03;;;2.58;;
52035;SDS011;38046;49.448;32.074;2023-05-01T04:08:56;2.70;;;2.42;;
52035;SDS011;38046;49.448;32.074;2023-05-01T04:11:22;4.75;;;2.60;;
52035;SDS011;38046;49.448;32.074;2023-05-01T04:13:47;2.67;;;2.47;;
52035;SDS011;38046;49.448;32.074;2023-05-01T04:16:13;2.40;;;2.20;;
52035;SDS011;38046;49.448;32.074;2023-05-01T04:18:38;3.45;;;2.90;;
52035;SDS011;38046;49.448;32.074;2023-05-01T04:21:04;2.83;;;2.60;;
52035;SDS011;38046;49.448;32.074;2023-05-01T04:23:30;2.85;;;2.50;;
52035;SDS011;38046;49.448;32.074;2023-05-01T04:25:56;2.40;;;2.20;;
52035;SDS011;38046;49.448;32.074;2023-05-01T04:28:21;2.92;;;2.50;;
52035;SDS011;38046;49.448;32.074;2023-05-01T04:30:47;2.50;;;2.30;;
52035;SDS011;38046;49.448;32.074;2023-05-01T04:33:13;2.58;;;2.17;;
52035;SDS011;38046;49.448;32.074;2023-05-01T04:35:39;2.55;;;2.35;;
52035;SDS011;38046;49.448;32.074;2023-05-01T04:38:05;3.05;;;2.17;;
52035;SDS011;38046;49.448;32.074;2023-05-01T04:40:31;2.40;;;2.20;;
52035;SDS011;38046;49.448;32.074;2023-05-01T04:42:57;2.85;;;2.65;;
52035;SDS011;38046;49.448;32.074;2023-05-01T04:45:23;2.03;;;1.90;;
52035;SDS011;38046;49.448;32.074;2023-05-01T04:47:49;2.85;;;2.05;;
52035;SDS011;38046;49.448;32.074;2023-05-01T04:50:15;2.33;;;1.90;;
52035;SDS011;38046;49.448;32.074;2023-05-01T04:52:40;2.25;;;2.05;;
52035;SDS011;38046;49.448;32.074;2023-05-01T04:55:06;2.25;;;2.05;;
52035;SDS011;38046;49.448;32.074;2023-05-01T04:57:33;2.42;;;2.00;;
52035;SDS011;38046;49.448;32.074;2023-05-01T04:59:59;3.80;;;2.00;;
52035;SDS011;38046;49.448;32.074;2023-05-01T05:02:25;2.53;;;2.00;;
52035;SDS011;38046;49.448;32.074;2023-05-01T05:04:51;3.13;;;2.10;;
52035;SDS011;38046;49.448;32.074;2023-05-01T05:07:20;3.10;;;2.60;;
52035;SDS011;38046;49.448;32.074;2023-05-01T05:09:46;3.00;;;2.20;;
52035;SDS011;38046;49.448;32.074;2023-05-01T05:12:12;2.40;;;2.03;;
52035;SDS011;38046;49.448;32.074;2023-05-01T05:14:39;2.28;;;2.08;;
52035;SDS011;38046;49.448;32.074;2023-05-01T05:17:05;2.75;;;2.20;;
52035;SDS011;38046;49.448;32.074;2023-05-01T05:19:31;2.38;;;2.10;;
52035;SDS011;38046;49.448;32.074;2023-05-01T05:21:57;2.72;;;2.05;;
52035;SDS011;38046;49.448;32.074;2023-05-01T05:24:22;2.60;;;2.33;;
52035;SDS011;38046;49.448;32.074;2023-05-01T05:26:48;2.90;;;2.05;;
52035;SDS011;38046;49.448;32.074;2023-05-01T05:29:15;3.33;;;2.22;;
52035;SDS011;38046;49.448;32.074;2023-05-01T05:31:40;2.60;;;2.30;;
52035;SDS011;38046;49.448;32.074;2023-05-01T05:34:06;2.22;;;2.00;;
52035;SDS011;38046;49.448;32.074;2023-05-01T05:36:32;4.30;;;2.17;;
52035;SDS011;38046;49.448;32.074;2023-05-01T05:38:59;2.88;;;2.30;;
52035;SDS011;38046;49.448;32.074;2023-05-01T05:41:25;2.50;;;1.90;;
52035;SDS011;38046;49.448;32.074;2023-05-01T05:43:51;2.53;;;2.33;;
52035;SDS011;38046;49.448;32.074;2023-05-01T05:46:18;2.65;;;2.45;;
52035;SDS011;38046;49.448;32.074;2023-05-01T05:48:43;4.15;;;2.75;;
52035;SDS011;38046;49.448;32.074;2023-05-01T05:51:09;3.90;;;2.72;;
52035;SDS011;38046;49.448;32.074;2023-05-01T05:53:35;2.97;;;2.63;;
52035;SDS011;38046;49.448;32.074;2023-05-01T05:56:00;4.40;;;3.30;;
52035;SDS011;38046;49.448;32.074;2023-05-01T05:58:26;2.92;;;2.47;;
52035;SDS011;38046;49.448;32.074;2023-05-01T06:00:52;4.93;;;3.10;;
52035;SDS011;38046;49.448;32.074;2023-05-01T06:03:19;3.80;;;2.85;;
52035;SDS011;38046;49.448;32.074;2023-05-01T06:05:45;3.58;;;3.08;;
52035;SDS011;38046;49.448;32.074;2023-05-01T06:08:11;4.03;;;3.17;;
52035;SDS011;38046;49.448;32.074;2023-05-01T06:10:38;4.00;;;3.20;;
52035;SDS011;38046;49.448;32.074;2023-05-01T06:13:07;4.68;;;3.30;;
52035;SDS011;38046;49.448;32.074;2023-05-01T06:15:34;4.93;;;3.25;;
52035;SDS011;38046;49.448;32.074;2023-05-01T06:18:03;3.60;;;3.20;;
52035;SDS011;38046;49.448;32.074;2023-05-01T06:20:29;3.88;;;3.47;;
52035;SDS011;38046;49.448;32.074;2023-05-01T06:22:55;6.25;;;4.00;;
52035;SDS011;38046;49.448;32.074;2023-05-01T06:25:21;5.18;;;4.10;;
52035;SDS011;38046;49.448;32.074;2023-05-01T06:27:50;6.60;;;4.07;;
52035;SDS011;38046;49.448;32.074;2023-05-01T06:30:16;5.20;;;3.88;;
52035;SDS011;38046;49.448;32.074;2023-05-01T06:32:44;5.20;;;4.13;;
52035;SDS011;38046;49.448;32.074;2023-05-01T06:35:10;5.45;;;4.10;;
52035;SDS011;38046;49.448;32.074;2023-05-01T06:37:36;5.60;;;4.35;;
52035;SDS011;38046;49.448;32.074;2023-05-01T06:40:03;5.85;;;4.43;;
52035;SDS011;38046;49.448;32.074;2023-05-01T06:42:32;4.78;;;3.60;;
52035;SDS011;38046;49.448;32.074;2023-05-01T06:44:58;6.30;;;4.07;;
52035;SDS011;38046;49.448;32.074;2023-05-01T06:47:23;6.10;;;4.40;;
52035;SDS011;38046;49.448;32.074;2023-05-01T06:49:49;4.38;;;3.95;;
52035;SDS011;38046;49.448;32.074;2023-05-01T06:52:14;4.45;;;3.65;;
52035;SDS011;38046;49.448;32.074;2023-05-01T06:54:40;5.30;;;4.22;;
52035;SDS011;38046;49.448;32.074;2023-05-01T06:57:06;5.38;;;4.13;;
52035;SDS011;38046;49.448;32.074;2023-05-01T06:59:31;4.70;;;3.80;;
52035;SDS011;38046;49.448;32.074;2023-05-01T07:01:57;5.07;;;3.80;;
52035;SDS011;38046;49.448;32.074;2023-05-01T07:04:22;5.20;;;3.92;;
52035;SDS011;38046;49.448;32.074;2023-05-01T07:06:48;5.05;;;3.90;;
52035;SDS011;38046;49.448;32.074;2023-05-01T07:09:14;5.43;;;3.75;;
52035;SDS011;38046;49.448;32.074;2023-05-01T07:11:39;6.63;;;3.95;;
52035;SDS011;38046;49.448;32.074;2023-05-01T07:14:06;3.92;;;3.38;;
52035;SDS011;38046;49.448;32.074;2023-05-01T07:16:32;6.45;;;3.92;;
52035;SDS011;38046;49.448;32.074;2023-05-01T07:18:58;4.38;;;3.50;;
52035;SDS011;38046;49.448;32.074;2023-05-01T07:21:24;4.78;;;3.60;;
52035;SDS011;38046;49.448;32.074;2023-05-01T07:23:49;4.50;;;3.55;;
52035;SDS011;38046;49.448;32.074;2023-05-01T07:26:15;4.82;;;3.80;;
52035;SDS011;38046;49.448;32.074;2023-05-01T07:28:41;5.15;;;3.60;;
52035;SDS011;38046;49.448;32.074;2023-05-01T07:31:09;5.70;;;3.67;;
52035;SDS011;38046;49.448;32.074;2023-05-01T07:33:35;3.67;;;3.25;;
52035;SDS011;38046;49.448;32.074;2023-05-01T07:36:01;5.28;;;3.50;;
52035;SDS011;38046;49.448;32.074;2023-05-01T07:38:28;5.07;;;3.40;;
52035;SDS011;38046;49.448;32.074;2023-05-01T07:40:54;5.75;;;3.90;;
52035;SDS011;38046;49.448;32.074;2023-05-01T07:43:21;5.85;;;3.70;;
52035;SDS011;38046;49.448;32.074;2023-05-01T07:45:53;3.90;;;3.17;;
52035;SDS011;38046;49.448;32.074;2023-05-01T07:48:21;4.80;;;3.92;;
52035;SDS011;38046;49.448;32.074;2023-05-01T07:50:46;5.05;;;3.20;;
52035;SDS011;38046;49.448;32.074;2023-05-01T07:53:12;3.92;;;3.40;;
52035;SDS011;38046;49.448;32.074;2023-05-01T07:55:38;3.75;;;3.03;;
52035;SDS011;38046;49.448;32.074;2023-05-01T07:58:03;5.70;;;3.33;;
52035;SDS011;38046;49.448;32.074;2023-05-01T08:00:29;4.18;;;3.08;;
52035;SDS011;38046;49.448;32.074;2023-05-01T08:02:55;3.72;;;3.15;;
52035;SDS011;38046;49.448;32.074;2023-05-01T08:05:20;4.07;;;3.10;;
52035;SDS011;38046;49.448;32.074;2023-05-01T08:07:46;5.35;;;3.03;;
52035;SDS011;38046;49.448;32.074;2023-05-01T08:10:15;3.60;;;3.22;;
52035;SDS011;38046;49.448;32.074;2023-05-01T08:12:40;3.85;;;2.83;;
52035;SDS011;38046;49.448;32.074;2023-05-01T08:15:06;3.95;;;2.97;;
52035;SDS011;38046;49.448;32.074;2023-05-01T08:17:33;4.40;;;3.08;;
52035;SDS011;38046;49.448;32.074;2023-05-01T08:20:00;4.45;;;3.00;;
52035;SDS011;38046;49.448;32.074;2023-05-01T08:22:25;3.40;;;2.88;;
52035;SDS011;38046;49.448;32.074;2023-05-01T08:24:51;3.15;;;2.83;;
52035;SDS011;38046;49.448;32.074;2023-05-01T08:27:17;3.83;;;2.85;;
52035;SDS011;38046;49.448;32.074;2023-05-01T08:29:43;4.97;;;3.10;;
52035;SDS011;38046;49.448;32.074;2023-05-01T08:32:08;3.22;;;2.92;;
52035;SDS011;38046;49.448;32.074;2023-05-01T08:34:34;3.65;;;3.08;;
52035;SDS011;38046;49.448;32.074;2023-05-01T08:37:00;3.80;;;3.10;;
52035;SDS011;38046;49.448;32.074;2023-05-01T08:39:26;4.03;;;2.97;;
52035;SDS011;38046;49.448;32.074;2023-05-01T08:41:51;3.65;;;2.80;;
52035;SDS011;38046;49.448;32.074;2023-05-01T08:44:18;3.17;;;2.70;;
52035;SDS011;38046;49.448;32.074;2023-05-01T08:49:17;3.60;;;2.92;;
52035;SDS011;38046;49.448;32.074;2023-05-01T08:51:45;3.80;;;3.13;;
52035;SDS011;38046;49.448;32.074;2023-05-01T08:54:14;3.75;;;3.13;;
52035;SDS011;38046;49.448;32.074;2023-05-01T08:56:45;5.05;;;3.17;;
52035;SDS011;38046;49.448;32.074;2023-05-01T08:59:12;5.45;;;2.83;;
52035;SDS011;38046;49.448;32.074;2023-05-01T09:01:42;3.87;;;2.50;;
52035;SDS011;38046;49.448;32.074;2023-05-01T09:04:10;2.80;;;2.60;;
52035;SDS011;38046;49.448;32.074;2023-05-01T09:06:37;3.45;;;3.13;;
52035;SDS011;38046;49.448;32.074;2023-05-01T09:09:03;2.55;;;2.35;;
52035;SDS011;38046;49.448;32.074;2023-05-01T09:11:28;2.75;;;2.50;;
52035;SDS011;38046;49.448;32.074;2023-05-01T09:13:54;3.47;;;2.70;;
52035;SDS011;38046;49.448;32.074;2023-05-01T09:16:21;2.70;;;2.50;;
52035;SDS011;38046;49.448;32.074;2023-05-01T09:18:47;3.90;;;2.70;;
52035;SDS011;38046;49.448;32.074;2023-05-01T09:21:13;3.42;;;2.80;;
52035;SDS011;38046;49.448;32.074;2023-05-01T09:23:38;3.28;;;2.50;;
52035;SDS011;38046;49.448;32.074;2023-05-01T09:26:05;3.60;;;2.50;;
52035;SDS011;38046;49.448;32.074;2023-05-01T09:28:38;4.13;;;2.72;;
52035;SDS011;38046;49.448;32.074;2023-05-01T09:31:25;3.00;;;2.70;;
52035;SDS011;38046;49.448;32.074;2023-05-01T09:34:02;3.47;;;2.67;;
52035;SDS011;38046;49.448;32.074;2023-05-01T09:36:30;3.83;;;2.97;;
52035;SDS011;38046;49.448;32.074;2023-05-01T09:38:57;3.40;;;2.50;;
52035;SDS011;38046;49.448;32.074;2023-05-01T09:41:24;3.38;;;3.08;;
52035;SDS011;38046;49.448;32.074;2023-05-01T09:43:51;2.92;;;2.65;;
52035;SDS011;38046;49.448;32.074;2023-05-01T09:46:18;3.15;;;2.85;;
52035;SDS011;38046;49.448;32.074;2023-05-01T09:48:50;3.15;;;2.72;;
52035;SDS011;38046;49.448;32.074;2023-05-01T09:53:56;3.78;;;2.60;;
52035;SDS011;38046;49.448;32.074;2023-05-01T09:56:28;5.28;;;3.10;;
52035;SDS011;38046;49.448;32.074;2023-05-01T09:58:56;3.53;;;2.40;;
52035;SDS011;38046;49.448;32.074;2023-05-01T10:01:38;2.78;;;2.45;;
52035;SDS011;38046;49.448;32.074;2023-05-01T10:04:06;2.90;;;2.55;;
52035;SDS011;38046;49.448;32.074;2023-05-01T10:06:33;2.72;;;2.50;;
52035;SDS011;38046;49.448;32.074;2023-05-01T10:09:00;2.80;;;2.53;;
52035;SDS011;38046;49.448;32.074;2023-05-01T10:11:27;3.28;;;2.30;;
52035;SDS011;38046;49.448;32.074;2023-05-01T10:14:08;2.55;;;2.35;;
52035;SDS011;38046;49.448;32.074;2023-05-01T10:19:01;2.70;;;2.50;;
52035;SDS011;38046;49.448;32.074;2023-05-01T10:21:28;2.63;;;2.20;;
52035;SDS011;38046;49.448;32.074;2023-05-01T10:23:54;2.30;;;2.10;;
52035;SDS011;38046;49.448;32.074;2023-05-01T10:26:20;2.63;;;2.20;;
52035;SDS011;38046;49.448;32.074;2023-05-01T10:28:46;3.22;;;2.28;;
52035;SDS011;38046;49.448;32.074;2023-05-01T10:31:13;2.50;;;2.30;;
52035;SDS011;38046;49.448;32.074;2023-05-01T10:33:39;2.45;;;2.25;;
52035;SDS011;38046;49.448;32.074;2023-05-01T10:36:08;2.17;;;2.08;;
52035;SDS011;38046;49.448;32.074;2023-05-01T10:38:59;2.45;;;2.03;;
52035;SDS011;38046;49.448;32.074;2023-05-01T10:41:59;3.03;;;2.30;;
52035;SDS011;38046;49.448;32.074;2023-05-01T10:44:35;2.30;;;2.10;;
52035;SDS011;38046;49.448;32.074;2023-05-01T10:55:34;2.15;;;1.90;;
52035;SDS011;38046;49.448;32.074;2023-05-01T10:58:01;2.60;;;2.05;;
52035;SDS011;38046;49.448;32.074;2023-05-01T11:00:27;2.33;;;2.10;;
52035;SDS011;38046;49.448;32.074;2023-05-01T11:08:30;2.72;;;2.20;;
52035;SDS011;38046;49.448;32.074;2023-05-01T11:10:57;1.93;;;1.83;;
52035;SDS011;38046;49.448;32.074;2023-05-01T11:19:06;3.05;;;2.00;;
52035;SDS011;38046;49.448;32.074;2023-05-01T11:21:32;2.03;;;1.85;;
52035;SDS011;38046;49.448;32.074;2023-05-01T11:24:00;1.98;;;1.88;;
52035;SDS011;38046;49.448;32.074;2023-05-01T11:26:30;1.88;;;1.77;;
52035;SDS011;38046;49.448;32.074;2023-05-01T11:28:57;1.88;;;1.77;;
52035;SDS011;38046;49.448;32.074;2023-05-01T11:31:25;2.05;;;1.85;;
52035;SDS011;38046;49.448;32.074;2023-05-01T11:33:54;2.10;;;1.90;;
52035;SDS011;38046;49.448;32.074;2023-05-01T11:36:21;2.00;;;1.90;;
52035;SDS011;38046;49.448;32.074;2023-05-01T11:41:23;2.20;;;2.00;;
52035;SDS011;38046;49.448;32.074;2023-05-01T11:43:54;2.00;;;1.90;;
52035;SDS011;38046;49.448;32.074;2023-05-01T11:46:22;1.92;;;1.73;;
52035;SDS011;38046;49.448;32.074;2023-05-01T11:48:49;3.42;;;2.00;;
52035;SDS011;38046;49.448;32.074;2023-05-01T11:51:15;1.83;;;1.73;;
52035;SDS011;38046;49.448;32.074;2023-05-01T11:53:41;1.83;;;1.73;;
52035;SDS011;38046;49.448;32.074;2023-05-01T11:56:19;1.83;;;1.73;;
52035;SDS011;38046;49.448;32.074;2023-05-01T11:58:45;1.58;;;1.48;;
52035;SDS011;38046;49.448;32.074;2023-05-01T12:01:13;1.67;;;1.50;;
52035;SDS011;38046;49.448;32.074;2023-05-01T12:03:41;2.08;;;1.88;;
52035;SDS011;38046;49.448;32.074;2023-05-01T12:06:11;2.22;;;2.03;;
52035;SDS011;38046;49.448;32.074;2023-05-01T12:08:41;2.00;;;1.90;;
52035;SDS011;38046;49.448;32.074;2023-05-01T12:11:09;2.15;;;1.95;;
52035;SDS011;38046;49.448;32.074;2023-05-01T12:13:35;1.90;;;1.80;;
52035;SDS011;38046;49.448;32.074;2023-05-01T12:16:02;1.88;;;1.70;;
52035;SDS011;38046;49.448;32.074;2023-05-01T12:18:28;2.00;;;1.90;;
52035;SDS011;38046;49.448;32.074;2023-05-01T12:20:54;4.18;;;2.00;;
52035;SDS011;38046;49.448;32.074;2023-05-01T12:23:35;2.00;;;1.80;;
52035;SDS011;38046;49.448;32.074;2023-05-01T12:26:01;2.00;;;1.90;;
52035;SDS011;38046;49.448;32.074;2023-05-01T12:28:58;1.70;;;1.60;;
52035;SDS011;38046;49.448;32.074;2023-05-01T12:31:26;2.28;;;1.80;;
52035;SDS011;38046;49.448;32.074;2023-05-01T12:33:56;1.75;;;1.52;;
52035;SDS011;38046;49.448;32.074;2023-05-01T12:36:30;1.52;;;1.42;;
52035;SDS011;38046;49.448;32.074;2023-05-01T12:39:10;2.03;;;1.90;;
52035;SDS011;38046;49.448;32.074;2023-05-01T12:41:42;1.70;;;1.60;;
52035;SDS011;38046;49.448;32.074;2023-05-01T12:44:25;3.10;;;1.70;;
52035;SDS011;38046;49.448;32.074;2023-05-01T12:47:04;1.65;;;1.55;;
52035;SDS011;38046;49.448;32.074;2023-05-01T12:49:34;1.58;;;1.48;;
52035;SDS011;38046;49.448;32.074;2023-05-01T12:52:01;1.38;;;1.38;;
52035;SDS011;38046;49.448;32.074;2023-05-01T12:54:30;1.70;;;1.60;;
52035;SDS011;38046;49.448;32.074;2023-05-01T12:59:42;1.98;;;1.83;;
52035;SDS011;38046;49.448;32.074;2023-05-01T13:02:13;2.55;;;2.00;;
52035;SDS011;38046;49.448;32.074;2023-05-01T13:07:14;1.70;;;1.60;;
52035;SDS011;38046;49.448;32.074;2023-05-01T13:09:58;1.60;;;1.50;;
52035;SDS011;38046;49.448;32.074;2023-05-01T13:12:25;1.63;;;1.52;;
52035;SDS011;38046;49.448;32.074;2023-05-01T13:14:51;1.33;;;1.23;;
52035;SDS011;38046;49.448;32.074;2023-05-01T13:17:30;1.50;;;1.40;;
52035;SDS011;38046;49.448;32.074;2023-05-01T13:20:00;1.58;;;1.50;;
52035;SDS011;38046;49.448;32.074;2023-05-01T13:22:34;1.55;;;1.45;;
52035;SDS011;38046;49.448;32.074;2023-05-01T13:25:04;1.92;;;1.48;;
52035;SDS011;38046;49.448;32.074;2023-05-01T13:27:50;1.42;;;1.33;;
52035;SDS011;38046;49.448;32.074;2023-05-01T13:30:20;2.53;;;1.63;;
52035;SDS011;38046;49.448;32.074;2023-05-01T13:32:56;1.40;;;1.30;;
52035;SDS011;38046;49.448;32.074;2023-05-01T13:35:22;2.10;;;1.60;;
52035;SDS011;38046;49.448;32.074;2023-05-01T13:37:49;1.60;;;1.50;;
52035;SDS011;38046;49.448;32.074;2023-05-01T13:40:15;1.30;;;1.20;;
52035;SDS011;38046;49.448;32.074;2023-05-01T13:42:43;1.63;;;1.52;;
52035;SDS011;38046;49.448;32.074;2023-05-01T13:45:09;1.50;;;1.40;;
52035;SDS011;38046;49.448;32.074;2023-05-01T13:47:36;1.45;;;1.35;;
52035;SDS011;38046;49.448;32.074;2023-05-01T13:50:08;1.52;;;1.42;;
52035;SDS011;38046;49.448;32.074;2023-05-01T13:52:41;1.67;;;1.48;;
52035;SDS011;38046;49.448;32.074;2023-05-01T13:55:11;2.00;;;1.20;;
52035;SDS011;38046;49.448;32.074;2023-05-01T13:57:38;2.00;;;1.27;;
52035;SDS011;38046;49.448;32.074;2023-05-01T14:00:07;2.22;;;1.90;;
52035;SDS011;38046;49.448;32.074;2023-05-01T14:02:41;1.40;;;1.30;;
52035;SDS011;38046;49.448;32.074;2023-05-01T14:05:08;1.27;;;1.17;;
52035;SDS011;38046;49.448;32.074;2023-05-01T14:07:34;1.23;;;1.23;;
52035;SDS011;38046;49.448;32.074;2023-05-01T14:10:15;1.63;;;1.52;;
52035;SDS011;38046;49.448;32.074;2023-05-01T14:12:41;1.75;;;1.50;;
52035;SDS011;38046;49.448;32.074;2023-05-01T14:15:07;1.50;;;1.40;;
52035;SDS011;38046;49.448;32.074;2023-05-01T14:17:35;1.42;;;1.33;;
52035;SDS011;38046;49.448;32.074;2023-05-01T14:20:02;1.60;;;1.42;;
52035;SDS011;38046;49.448;32.074;2023-05-01T14:22:29;1.30;;;1.30;;
52035;SDS011;38046;49.448;32.074;2023-05-01T14:25:04;1.60;;;1.50;;
52035;SDS011;38046;49.448;32.074;2023-05-01T14:30:28;1.40;;;1.30;;
52035;SDS011;38046;49.448;32.074;2023-05-01T14:32:57;1.20;;;1.20;;
52035;SDS011;38046;49.448;32.074;2023-05-01T14:35:26;1.00;;;1.00;;
52035;SDS011;38046;49.448;32.074;2023-05-01T14:37:51;3.70;;;1.38;;
52035;SDS011;38046;49.448;32.074;2023-05-01T14:40:18;1.17;;;1.10;;
52035;SDS011;38046;49.448;32.074;2023-05-01T14:42:52;1.23;;;1.23;;
52035;SDS011;38046;49.448;32.074;2023-05-01T14:45:18;1.60;;;1.50;;
52035;SDS011;38046;49.448;32.074;2023-05-01T14:47:45;2.30;;;1.35;;
52035;SDS011;38046;49.448;32.074;2023-05-01T14:50:12;1.17;;;1.08;;
52035;SDS011;38046;49.448;32.074;2023-05-01T14:52:56;1.13;;;1.13;;
52035;SDS011;38046;49.448;32.074;2023-05-01T14:55:26;1.10;;;1.00;;
52035;SDS011;38046;49.448;32.074;2023-05-01T14:57:56;1.00;;;1.00;;
52035;SDS011;38046;49.448;32.074;2023-05-01T15:00:22;1.58;;;1.48;;
52035;SDS011;38046;49.448;32.074;2023-05-01T15:02:48;1.67;;;1.30;;
52035;SDS011;38046;49.448;32.074;2023-05-01T15:05:15;1.60;;;1.50;;
52035;SDS011;38046;49.448;32.074;2023-05-01T15:07:41;2.20;;;1.17;;
52035;SDS011;38046;49.448;32.074;2023-05-01T15:10:07;0.98;;;0.98;;
52035;SDS011;38046;49.448;32.074;2023-05-01T15:12:33;1.23;;;1.13;;
52035;SDS011;38046;49.448;32.074;2023-05-01T15:14:58;2.55;;;1.55;;
52035;SDS011;38046;49.448;32.074;2023-05-01T15:17:24;1.20;;;1.10;;
52035;SDS011;38046;49.448;32.074;2023-05-01T15:19:51;1.33;;;1.23;;
52035;SDS011;38046;49.448;32.074;2023-05-01T15:22:17;1.60;;;1.50;;
52035;SDS011;38046;49.448;32.074;2023-05-01T15:24:42;1.02;;;0.93;;
52035;SDS011;38046;49.448;32.074;2023-05-01T15:27:08;1.58;;;1.48;;
52035;SDS011;38046;49.448;32.074;2023-05-01T15:29:34;0.80;;;0.80;;
52035;SDS011;38046;49.448;32.074;2023-05-01T15:32:00;3.70;;;1.15;;
52035;SDS011;38046;49.448;32.074;2023-05-01T15:34:26;1.52;;;1.40;;